sensor_id;sensor_type;location;lat;lon;timestamp;P1;durP1;ratioP1;P2;durP2;ratioP2
75059;SDS011;63640;59.264;18.116;2023-02-04T00:02:15;3.95;;;1.10;;
75059;SDS011;63640;59.264;18.116;2023-02-04T00:04:49;4.90;;;1.30;;
75059;SDS011;63640;59.264;18.116;2023-02-04T00:07:20;6.53;;;1.17;;
75059;SDS011;63640;59.264;18.116;2023-02-04T00:09:54;3.60;;;1.00;;
75059;SDS011;63640;59.264;18.116;2023-02-04T00:12:27;4.35;;;1.00;;
75059;SDS011;63640;59.264;18.116;2023-02-04T00:14:59;5.22;;;1.35;;
75059;SDS011;63640;59.264;18.116;2023-02-04T00:17:29;6.35;;;1.30;;
75059;SDS011;63640;59.264;18.116;2023-02-04T00:20:00;5.95;;;1.55;;
75059;SDS011;63640;59.264;18.116;2023-02-04T00:22:30;7.20;;;1.40;;
75059;SDS011;63640;59.264;18.116;2023-02-04T00:25:06;9.07;;;1.73;;
75059;SDS011;63640;59.264;18.116;2023-02-04T00:27:39;3.30;;;1.10;;
75059;SDS011;63640;59.264;18.116;2023-02-04T00:30:13;6.15;;;1.45;;
75059;SDS011;63640;59.264;18.116;2023-02-04T00:32:46;5.85;;;1.23;;
75059;SDS011;63640;59.264;18.116;2023-02-04T00:35:19;4.88;;;1.30;;
75059;SDS011;63640;59.264;18.116;2023-02-04T00:37:49;3.50;;;1.40;;
75059;SDS011;63640;59.264;18.116;2023-02-04T00:40:21;4.10;;;1.10;;
75059;SDS011;63640;59.264;18.116;2023-02-04T00:42:53;2.88;;;0.98;;
75059;SDS011;63640;59.264;18.116;2023-02-04T00:45:26;4.72;;;1.30;;
75059;SDS011;63640;59.264;18.116;2023-02-04T00:47:57;4.88;;;1.27;;
75059;SDS011;63640;59.264;18.116;2023-02-04T00:50:28;7.43;;;1.38;;
75059;SDS011;63640;59.264;18.116;2023-02-04T00:53:03;5.32;;;1.30;;
75059;SDS011;63640;59.264;18.116;2023-02-04T00:55:37;3.67;;;1.10;;
75059;SDS011;63640;59.264;18.116;2023-02-04T00:58:09;5.18;;;1.42;;
75059;SDS011;63640;59.264;18.116;2023-02-04T01:00:41;4.70;;;1.15;;
75059;SDS011;63640;59.264;18.116;2023-02-04T01:03:11;4.43;;;1.40;;
75059;SDS011;63640;59.264;18.116;2023-02-04T01:05:45;5.18;;;1.60;;
75059;SDS011;63640;59.264;18.116;2023-02-04T01:08:17;4.03;;;1.42;;
75059;SDS011;63640;59.264;18.116;2023-02-04T01:10:49;7.75;;;1.40;;
75059;SDS011;63640;59.264;18.116;2023-02-04T01:13:21;4.13;;;1.45;;
75059;SDS011;63640;59.264;18.116;2023-02-04T01:15:53;4.47;;;1.30;;
75059;SDS011;63640;59.264;18.116;2023-02-04T01:18:25;7.55;;;1.65;;
75059;SDS011;63640;59.264;18.116;2023-02-04T01:20:56;3.40;;;1.17;;
75059;SDS011;63640;59.264;18.116;2023-02-04T01:23:30;4.97;;;1.00;;
75059;SDS011;63640;59.264;18.116;2023-02-04T01:26:00;5.07;;;1.20;;
75059;SDS011;63640;59.264;18.116;2023-02-04T01:28:34;4.38;;;1.25;;
75059;SDS011;63640;59.264;18.116;2023-02-04T01:31:08;5.65;;;1.40;;
75059;SDS011;63640;59.264;18.116;2023-02-04T01:33:39;4.57;;;1.17;;
75059;SDS011;63640;59.264;18.116;2023-02-04T01:36:11;6.13;;;1.48;;
75059;SDS011;63640;59.264;18.116;2023-02-04T01:38:46;4.10;;;1.20;;
75059;SDS011;63640;59.264;18.116;2023-02-04T01:41:18;4.68;;;1.40;;
75059;SDS011;63640;59.264;18.116;2023-02-04T01:43:51;4.03;;;1.20;;
75059;SDS011;63640;59.264;18.116;2023-02-04T01:46:25;6.38;;;1.50;;
75059;SDS011;63640;59.264;18.116;2023-02-04T01:48:58;6.47;;;1.10;;
75059;SDS011;63640;59.264;18.116;2023-02-04T01:51:30;3.88;;;1.10;;
75059;SDS011;63640;59.264;18.116;2023-02-04T01:54:00;8.52;;;1.05;;
75059;SDS011;63640;59.264;18.116;2023-02-04T01:56:30;4.75;;;1.15;;
75059;SDS011;63640;59.264;18.116;2023-02-04T01:59:08;6.50;;;1.33;;
75059;SDS011;63640;59.264;18.116;2023-02-04T02:01:48;3.25;;;0.90;;
75059;SDS011;63640;59.264;18.116;2023-02-04T02:04:30;5.15;;;1.25;;
75059;SDS011;63640;59.264;18.116;2023-02-04T02:07:02;6.07;;;1.02;;
75059;SDS011;63640;59.264;18.116;2023-02-04T02:09:33;6.05;;;1.13;;
75059;SDS011;63640;59.264;18.116;2023-02-04T02:12:06;10.27;;;1.40;;
75059;SDS011;63640;59.264;18.116;2023-02-04T02:14:37;4.40;;;1.02;;
75059;SDS011;63640;59.264;18.116;2023-02-04T02:17:10;3.13;;;1.02;;
75059;SDS011;63640;59.264;18.116;2023-02-04T02:19:43;5.45;;;1.33;;
75059;SDS011;63640;59.264;18.116;2023-02-04T02:22:28;4.50;;;1.13;;
75059;SDS011;63640;59.264;18.116;2023-02-04T02:25:06;5.78;;;1.00;;
75059;SDS011;63640;59.264;18.116;2023-02-04T02:27:39;6.60;;;1.70;;
75059;SDS011;63640;59.264;18.116;2023-02-04T02:30:09;5.60;;;1.20;;
75059;SDS011;63640;59.264;18.116;2023-02-04T02:32:42;3.92;;;1.05;;
75059;SDS011;63640;59.264;18.116;2023-02-04T02:35:14;6.07;;;1.38;;
75059;SDS011;63640;59.264;18.116;2023-02-04T02:37:44;4.00;;;0.85;;
75059;SDS011;63640;59.264;18.116;2023-02-04T02:40:17;5.63;;;1.10;;
75059;SDS011;63640;59.264;18.116;2023-02-04T02:42:49;7.82;;;1.33;;
75059;SDS011;63640;59.264;18.116;2023-02-04T02:45:27;5.40;;;1.42;;
75059;SDS011;63640;59.264;18.116;2023-02-04T02:48:00;3.90;;;1.27;;
75059;SDS011;63640;59.264;18.116;2023-02-04T02:50:33;4.38;;;1.48;;
75059;SDS011;63640;59.264;18.116;2023-02-04T02:53:08;4.18;;;1.23;;
75059;SDS011;63640;59.264;18.116;2023-02-04T02:55:42;5.65;;;1.00;;
75059;SDS011;63640;59.264;18.116;2023-02-04T02:58:23;4.07;;;1.10;;
75059;SDS011;63640;59.264;18.116;2023-02-04T03:00:52;5.93;;;1.10;;
75059;SDS011;63640;59.264;18.116;2023-02-04T03:03:24;4.13;;;1.20;;
75059;SDS011;63640;59.264;18.116;2023-02-04T03:06:03;4.07;;;1.30;;
75059;SDS011;63640;59.264;18.116;2023-02-04T03:08:36;5.38;;;1.40;;
75059;SDS011;63640;59.264;18.116;2023-02-04T03:11:10;8.20;;;1.27;;
75059;SDS011;63640;59.264;18.116;2023-02-04T03:13:41;6.45;;;1.67;;
75059;SDS011;63640;59.264;18.116;2023-02-04T03:16:11;6.40;;;1.23;;
75059;SDS011;63640;59.264;18.116;2023-02-04T03:18:45;6.82;;;3.10;;
75059;SDS011;63640;59.264;18.116;2023-02-04T03:21:19;6.68;;;1.10;;
75059;SDS011;63640;59.264;18.116;2023-02-04T03:23:52;5.30;;;1.20;;
75059;SDS011;63640;59.264;18.116;2023-02-04T03:26:25;3.15;;;0.77;;
75059;SDS011;63640;59.264;18.116;2023-02-04T03:28:58;6.95;;;1.45;;
75059;SDS011;63640;59.264;18.116;2023-02-04T03:31:29;3.60;;;1.15;;
75059;SDS011;63640;59.264;18.116;2023-02-04T03:34:02;4.45;;;1.38;;
75059;SDS011;63640;59.264;18.116;2023-02-04T03:36:32;3.67;;;1.25;;
75059;SDS011;63640;59.264;18.116;2023-02-04T03:39:05;6.90;;;1.40;;
75059;SDS011;63640;59.264;18.116;2023-02-04T03:41:35;4.43;;;1.25;;
75059;SDS011;63640;59.264;18.116;2023-02-04T03:44:09;9.82;;;1.70;;
75059;SDS011;63640;59.264;18.116;2023-02-04T03:46:41;4.88;;;1.30;;
75059;SDS011;63640;59.264;18.116;2023-02-04T03:49:12;10.77;;;1.55;;
75059;SDS011;63640;59.264;18.116;2023-02-04T03:51:43;7.82;;;1.13;;
75059;SDS011;63640;59.264;18.116;2023-02-04T03:54:15;4.72;;;1.08;;
75059;SDS011;63640;59.264;18.116;2023-02-04T03:56:46;4.70;;;1.30;;
75059;SDS011;63640;59.264;18.116;2023-02-04T03:59:20;4.13;;;1.20;;
75059;SDS011;63640;59.264;18.116;2023-02-04T04:01:51;5.80;;;1.20;;
75059;SDS011;63640;59.264;18.116;2023-02-04T04:04:24;7.70;;;1.20;;
75059;SDS011;63640;59.264;18.116;2023-02-04T04:06:57;3.70;;;1.15;;
75059;SDS011;63640;59.264;18.116;2023-02-04T04:09:28;6.63;;;1.50;;
75059;SDS011;63640;59.264;18.116;2023-02-04T04:12:00;5.15;;;1.52;;
75059;SDS011;63640;59.264;18.116;2023-02-04T04:14:31;2.72;;;0.90;;
75059;SDS011;63640;59.264;18.116;2023-02-04T04:17:02;4.18;;;1.48;;
75059;SDS011;63640;59.264;18.116;2023-02-04T04:19:34;6.18;;;1.58;;
75059;SDS011;63640;59.264;18.116;2023-02-04T04:22:07;3.70;;;1.05;;
75059;SDS011;63640;59.264;18.116;2023-02-04T04:24:37;5.45;;;1.50;;
75059;SDS011;63640;59.264;18.116;2023-02-04T04:27:09;9.55;;;1.52;;
75059;SDS011;63640;59.264;18.116;2023-02-04T04:29:43;6.45;;;1.45;;
75059;SDS011;63640;59.264;18.116;2023-02-04T04:32:16;4.55;;;1.23;;
75059;SDS011;63640;59.264;18.116;2023-02-04T04:34:47;5.75;;;1.33;;
75059;SDS011;63640;59.264;18.116;2023-02-04T04:37:19;4.18;;;1.15;;
75059;SDS011;63640;59.264;18.116;2023-02-04T04:39:51;5.90;;;1.25;;
75059;SDS011;63640;59.264;18.116;2023-02-04T04:42:23;4.68;;;1.13;;
75059;SDS011;63640;59.264;18.116;2023-02-04T04:44:55;3.85;;;1.15;;
75059;SDS011;63640;59.264;18.116;2023-02-04T04:47:27;3.58;;;1.15;;
75059;SDS011;63640;59.264;18.116;2023-02-04T04:50:00;7.32;;;1.63;;
75059;SDS011;63640;59.264;18.116;2023-02-04T04:52:30;5.80;;;1.23;;
75059;SDS011;63640;59.264;18.116;2023-02-04T04:55:04;12.13;;;1.30;;
75059;SDS011;63640;59.264;18.116;2023-02-04T04:57:36;3.05;;;1.00;;
75059;SDS011;63640;59.264;18.116;2023-02-04T05:00:10;7.00;;;1.30;;
75059;SDS011;63640;59.264;18.116;2023-02-04T05:02:42;4.65;;;0.85;;
75059;SDS011;63640;59.264;18.116;2023-02-04T05:05:15;3.97;;;0.88;;
75059;SDS011;63640;59.264;18.116;2023-02-04T05:07:46;2.85;;;1.00;;
75059;SDS011;63640;59.264;18.116;2023-02-04T05:10:20;6.93;;;1.55;;
75059;SDS011;63640;59.264;18.116;2023-02-04T05:12:53;5.28;;;0.98;;
75059;SDS011;63640;59.264;18.116;2023-02-04T05:15:24;3.80;;;0.95;;
75059;SDS011;63640;59.264;18.116;2023-02-04T05:17:56;4.13;;;1.20;;
75059;SDS011;63640;59.264;18.116;2023-02-04T05:20:28;5.57;;;1.13;;
75059;SDS011;63640;59.264;18.116;2023-02-04T05:22:59;6.57;;;1.65;;
75059;SDS011;63640;59.264;18.116;2023-02-04T05:25:32;6.88;;;1.63;;
75059;SDS011;63640;59.264;18.116;2023-02-04T05:28:04;5.63;;;1.23;;
75059;SDS011;63640;59.264;18.116;2023-02-04T05:30:37;2.97;;;1.02;;
75059;SDS011;63640;59.264;18.116;2023-02-04T05:33:09;3.45;;;1.10;;
75059;SDS011;63640;59.264;18.116;2023-02-04T05:35:40;2.50;;;0.82;;
75059;SDS011;63640;59.264;18.116;2023-02-04T05:38:15;4.80;;;1.25;;
75059;SDS011;63640;59.264;18.116;2023-02-04T05:40:46;5.70;;;1.13;;
75059;SDS011;63640;59.264;18.116;2023-02-04T05:43:16;4.63;;;1.10;;
75059;SDS011;63640;59.264;18.116;2023-02-04T05:45:50;6.63;;;1.73;;
75059;SDS011;63640;59.264;18.116;2023-02-04T05:48:22;6.78;;;1.30;;
75059;SDS011;63640;59.264;18.116;2023-02-04T05:50:55;2.78;;;0.88;;
75059;SDS011;63640;59.264;18.116;2023-02-04T05:53:27;4.43;;;1.15;;
75059;SDS011;63640;59.264;18.116;2023-02-04T05:55:59;5.05;;;0.88;;
75059;SDS011;63640;59.264;18.116;2023-02-04T05:58:32;4.30;;;1.13;;
75059;SDS011;63640;59.264;18.116;2023-02-04T06:01:04;3.97;;;0.90;;
75059;SDS011;63640;59.264;18.116;2023-02-04T06:03:36;6.05;;;1.50;;
75059;SDS011;63640;59.264;18.116;2023-02-04T06:06:08;4.25;;;1.00;;
75059;SDS011;63640;59.264;18.116;2023-02-04T06:08:41;6.10;;;0.90;;
75059;SDS011;63640;59.264;18.116;2023-02-04T06:11:16;3.83;;;0.90;;
75059;SDS011;63640;59.264;18.116;2023-02-04T06:13:49;4.97;;;1.35;;
75059;SDS011;63640;59.264;18.116;2023-02-04T06:16:20;7.20;;;1.40;;
75059;SDS011;63640;59.264;18.116;2023-02-04T06:18:52;5.80;;;0.90;;
75059;SDS011;63640;59.264;18.116;2023-02-04T06:21:26;3.75;;;1.17;;
75059;SDS011;63640;59.264;18.116;2023-02-04T06:23:57;4.13;;;1.20;;
75059;SDS011;63640;59.264;18.116;2023-02-04T06:26:29;4.90;;;0.90;;
75059;SDS011;63640;59.264;18.116;2023-02-04T06:29:00;3.28;;;0.80;;
75059;SDS011;63640;59.264;18.116;2023-02-04T06:31:32;4.20;;;0.80;;
75059;SDS011;63640;59.264;18.116;2023-02-04T06:34:04;2.97;;;0.82;;
75059;SDS011;63640;59.264;18.116;2023-02-04T06:36:34;1.98;;;0.70;;
75059;SDS011;63640;59.264;18.116;2023-02-04T06:39:08;4.90;;;0.85;;
75059;SDS011;63640;59.264;18.116;2023-02-04T06:41:40;6.50;;;0.90;;
75059;SDS011;63640;59.264;18.116;2023-02-04T06:44:11;6.53;;;0.90;;
75059;SDS011;63640;59.264;18.116;2023-02-04T06:46:46;4.07;;;1.05;;
75059;SDS011;63640;59.264;18.116;2023-02-04T06:49:20;5.53;;;0.95;;
75059;SDS011;63640;59.264;18.116;2023-02-04T06:51:51;2.50;;;0.90;;
75059;SDS011;63640;59.264;18.116;2023-02-04T06:54:22;8.98;;;1.25;;
75059;SDS011;63640;59.264;18.116;2023-02-04T06:56:57;5.00;;;1.60;;
75059;SDS011;63640;59.264;18.116;2023-02-04T06:59:37;4.55;;;1.45;;
75059;SDS011;63640;59.264;18.116;2023-02-04T07:02:11;6.18;;;1.25;;
75059;SDS011;63640;59.264;18.116;2023-02-04T07:04:41;8.05;;;1.02;;
75059;SDS011;63640;59.264;18.116;2023-02-04T07:09:43;5.55;;;1.25;;
75059;SDS011;63640;59.264;18.116;2023-02-04T07:12:16;4.25;;;1.20;;
75059;SDS011;63640;59.264;18.116;2023-02-04T07:14:48;4.15;;;1.08;;
75059;SDS011;63640;59.264;18.116;2023-02-04T07:17:21;3.85;;;1.30;;
75059;SDS011;63640;59.264;18.116;2023-02-04T07:19:52;3.78;;;1.00;;
75059;SDS011;63640;59.264;18.116;2023-02-04T07:22:24;6.65;;;1.52;;
75059;SDS011;63640;59.264;18.116;2023-02-04T07:24:55;7.88;;;1.38;;
75059;SDS011;63640;59.264;18.116;2023-02-04T07:27:27;3.80;;;1.10;;
75059;SDS011;63640;59.264;18.116;2023-02-04T07:29:59;6.70;;;1.58;;
75059;SDS011;63640;59.264;18.116;2023-02-04T07:32:30;2.90;;;1.10;;
75059;SDS011;63640;59.264;18.116;2023-02-04T07:35:01;4.80;;;1.10;;
75059;SDS011;63640;59.264;18.116;2023-02-04T07:37:32;3.58;;;1.05;;
75059;SDS011;63640;59.264;18.116;2023-02-04T07:40:03;2.55;;;0.88;;
75059;SDS011;63640;59.264;18.116;2023-02-04T07:42:34;7.68;;;1.30;;
75059;SDS011;63640;59.264;18.116;2023-02-04T07:45:06;8.13;;;1.27;;
75059;SDS011;63640;59.264;18.116;2023-02-04T07:47:39;10.10;;;1.45;;
75059;SDS011;63640;59.264;18.116;2023-02-04T07:50:09;4.82;;;1.20;;
75059;SDS011;63640;59.264;18.116;2023-02-04T07:52:42;6.53;;;1.10;;
75059;SDS011;63640;59.264;18.116;2023-02-04T07:55:15;3.30;;;0.80;;
75059;SDS011;63640;59.264;18.116;2023-02-04T07:57:47;8.00;;;1.20;;
75059;SDS011;63640;59.264;18.116;2023-02-04T08:00:18;9.32;;;1.77;;
75059;SDS011;63640;59.264;18.116;2023-02-04T08:02:48;3.50;;;0.93;;
75059;SDS011;63640;59.264;18.116;2023-02-04T08:05:21;3.30;;;0.88;;
75059;SDS011;63640;59.264;18.116;2023-02-04T08:07:52;6.75;;;1.50;;
75059;SDS011;63640;59.264;18.116;2023-02-04T08:10:23;4.70;;;1.13;;
75059;SDS011;63640;59.264;18.116;2023-02-04T08:12:55;5.72;;;1.15;;
75059;SDS011;63640;59.264;18.116;2023-02-04T08:15:27;4.85;;;1.10;;
75059;SDS011;63640;59.264;18.116;2023-02-04T08:18:03;8.32;;;1.63;;
75059;SDS011;63640;59.264;18.116;2023-02-04T08:20:34;6.63;;;1.70;;
75059;SDS011;63640;59.264;18.116;2023-02-04T08:23:07;4.78;;;1.60;;
75059;SDS011;63640;59.264;18.116;2023-02-04T08:25:39;4.95;;;1.25;;
75059;SDS011;63640;59.264;18.116;2023-02-04T08:28:12;7.82;;;1.60;;
75059;SDS011;63640;59.264;18.116;2023-02-04T08:30:44;5.47;;;1.05;;
75059;SDS011;63640;59.264;18.116;2023-02-04T08:33:15;5.00;;;1.48;;
75059;SDS011;63640;59.264;18.116;2023-02-04T08:35:46;10.75;;;3.72;;
75059;SDS011;63640;59.264;18.116;2023-02-04T08:38:18;15.48;;;7.78;;
75059;SDS011;63640;59.264;18.116;2023-02-04T08:40:53;9.82;;;5.40;;
75059;SDS011;63640;59.264;18.116;2023-02-04T08:43:26;7.00;;;2.85;;
75059;SDS011;63640;59.264;18.116;2023-02-04T08:45:58;6.15;;;2.22;;
75059;SDS011;63640;59.264;18.116;2023-02-04T08:48:28;7.15;;;1.90;;
75059;SDS011;63640;59.264;18.116;2023-02-04T08:50:59;6.80;;;2.17;;
75059;SDS011;63640;59.264;18.116;2023-02-04T08:53:30;8.85;;;3.30;;
75059;SDS011;63640;59.264;18.116;2023-02-04T08:56:02;9.95;;;3.05;;
75059;SDS011;63640;59.264;18.116;2023-02-04T08:58:35;7.65;;;2.90;;
75059;SDS011;63640;59.264;18.116;2023-02-04T09:01:07;5.95;;;2.83;;
75059;SDS011;63640;59.264;18.116;2023-02-04T09:03:43;5.78;;;2.10;;
75059;SDS011;63640;59.264;18.116;2023-02-04T09:06:15;5.53;;;1.58;;
75059;SDS011;63640;59.264;18.116;2023-02-04T09:11:17;5.90;;;1.20;;
75059;SDS011;63640;59.264;18.116;2023-02-04T09:13:51;6.70;;;1.30;;
75059;SDS011;63640;59.264;18.116;2023-02-04T09:16:25;4.57;;;1.20;;
75059;SDS011;63640;59.264;18.116;2023-02-04T09:18:56;5.78;;;1.38;;
75059;SDS011;63640;59.264;18.116;2023-02-04T09:21:29;10.57;;;1.70;;
75059;SDS011;63640;59.264;18.116;2023-02-04T09:24:00;7.22;;;2.72;;
75059;SDS011;63640;59.264;18.116;2023-02-04T09:26:32;6.95;;;1.90;;
75059;SDS011;63640;59.264;18.116;2023-02-04T09:29:04;7.55;;;1.90;;
75059;SDS011;63640;59.264;18.116;2023-02-04T09:31:37;5.53;;;1.90;;
75059;SDS011;63640;59.264;18.116;2023-02-04T09:34:07;7.32;;;1.85;;
75059;SDS011;63640;59.264;18.116;2023-02-04T09:36:40;3.75;;;1.42;;
75059;SDS011;63640;59.264;18.116;2023-02-04T09:39:11;8.57;;;1.40;;
75059;SDS011;63640;59.264;18.116;2023-02-04T09:41:43;12.15;;;1.33;;
75059;SDS011;63640;59.264;18.116;2023-02-04T09:44:17;4.28;;;1.20;;
75059;SDS011;63640;59.264;18.116;2023-02-04T09:46:48;5.07;;;1.27;;
75059;SDS011;63640;59.264;18.116;2023-02-04T09:49:20;4.88;;;1.20;;
75059;SDS011;63640;59.264;18.116;2023-02-04T09:51:50;4.63;;;1.58;;
75059;SDS011;63640;59.264;18.116;2023-02-04T09:54:24;7.90;;;1.48;;
75059;SDS011;63640;59.264;18.116;2023-02-04T09:56:54;5.63;;;1.38;;
75059;SDS011;63640;59.264;18.116;2023-02-04T09:59:27;6.13;;;1.20;;
75059;SDS011;63640;59.264;18.116;2023-02-04T10:02:03;4.90;;;1.25;;
75059;SDS011;63640;59.264;18.116;2023-02-04T10:04:35;6.78;;;1.08;;
75059;SDS011;63640;59.264;18.116;2023-02-04T10:07:09;7.68;;;1.10;;
75059;SDS011;63640;59.264;18.116;2023-02-04T10:09:42;3.53;;;1.00;;
75059;SDS011;63640;59.264;18.116;2023-02-04T10:12:14;4.03;;;0.95;;
75059;SDS011;63640;59.264;18.116;2023-02-04T10:14:47;5.88;;;1.55;;
75059;SDS011;63640;59.264;18.116;2023-02-04T10:17:19;5.05;;;1.10;;
75059;SDS011;63640;59.264;18.116;2023-02-04T10:19:49;4.00;;;1.30;;
75059;SDS011;63640;59.264;18.116;2023-02-04T10:22:21;3.85;;;1.52;;
75059;SDS011;63640;59.264;18.116;2023-02-04T10:24:52;6.68;;;1.10;;
75059;SDS011;63640;59.264;18.116;2023-02-04T10:27:23;4.13;;;1.17;;
75059;SDS011;63640;59.264;18.116;2023-02-04T10:29:55;3.10;;;0.95;;
75059;SDS011;63640;59.264;18.116;2023-02-04T10:32:26;4.00;;;1.20;;
75059;SDS011;63640;59.264;18.116;2023-02-04T10:34:59;8.60;;;1.58;;
75059;SDS011;63640;59.264;18.116;2023-02-04T10:37:29;4.63;;;0.98;;
75059;SDS011;63640;59.264;18.116;2023-02-04T10:39:58;7.32;;;1.13;;
75059;SDS011;63640;59.264;18.116;2023-02-04T10:42:28;4.97;;;1.20;;
75059;SDS011;63640;59.264;18.116;2023-02-04T10:44:59;5.25;;;1.10;;
75059;SDS011;63640;59.264;18.116;2023-02-04T10:47:30;3.30;;;0.85;;
75059;SDS011;63640;59.264;18.116;2023-02-04T10:52:35;5.10;;;1.33;;
75059;SDS011;63640;59.264;18.116;2023-02-04T10:55:13;4.00;;;1.00;;
75059;SDS011;63640;59.264;18.116;2023-02-04T10:57:47;5.68;;;1.15;;
75059;SDS011;63640;59.264;18.116;2023-02-04T11:00:22;4.75;;;1.08;;
75059;SDS011;63640;59.264;18.116;2023-02-04T11:02:58;5.10;;;0.90;;
75059;SDS011;63640;59.264;18.116;2023-02-04T11:05:36;8.27;;;1.20;;
75059;SDS011;63640;59.264;18.116;2023-02-04T11:08:25;5.40;;;1.10;;
75059;SDS011;63640;59.264;18.116;2023-02-04T11:10:59;6.68;;;1.10;;
75059;SDS011;63640;59.264;18.116;2023-02-04T11:18:45;4.65;;;1.00;;
75059;SDS011;63640;59.264;18.116;2023-02-04T11:21:13;3.78;;;0.90;;
75059;SDS011;63640;59.264;18.116;2023-02-04T11:23:40;12.82;;;2.03;;
75059;SDS011;63640;59.264;18.116;2023-02-04T11:26:15;4.30;;;1.10;;
75059;SDS011;63640;59.264;18.116;2023-02-04T11:31:25;5.32;;;0.70;;
75059;SDS011;63640;59.264;18.116;2023-02-04T11:34:23;5.18;;;1.05;;
75059;SDS011;63640;59.264;18.116;2023-02-04T11:37:01;4.57;;;0.98;;
75059;SDS011;63640;59.264;18.116;2023-02-04T11:39:34;6.38;;;1.25;;
75059;SDS011;63640;59.264;18.116;2023-02-04T11:42:04;2.17;;;0.75;;
75059;SDS011;63640;59.264;18.116;2023-02-04T11:44:47;2.92;;;1.00;;
75059;SDS011;63640;59.264;18.116;2023-02-04T11:47:19;8.30;;;1.00;;
75059;SDS011;63640;59.264;18.116;2023-02-04T11:49:53;5.28;;;1.15;;
75059;SDS011;63640;59.264;18.116;2023-02-04T11:52:23;4.30;;;1.25;;
75059;SDS011;63640;59.264;18.116;2023-02-04T11:54:57;5.30;;;1.00;;
75059;SDS011;63640;59.264;18.116;2023-02-04T11:57:27;4.43;;;1.10;;
75059;SDS011;63640;59.264;18.116;2023-02-04T12:00:04;3.42;;;0.98;;
75059;SDS011;63640;59.264;18.116;2023-02-04T12:02:42;5.35;;;1.15;;
75059;SDS011;63640;59.264;18.116;2023-02-04T12:05:16;3.72;;;1.00;;
75059;SDS011;63640;59.264;18.116;2023-02-04T12:07:48;6.85;;;1.50;;
75059;SDS011;63640;59.264;18.116;2023-02-04T12:10:24;4.72;;;1.33;;
75059;SDS011;63640;59.264;18.116;2023-02-04T12:12:55;6.10;;;1.23;;
75059;SDS011;63640;59.264;18.116;2023-02-04T12:15:31;4.55;;;1.00;;
75059;SDS011;63640;59.264;18.116;2023-02-04T12:18:04;5.35;;;1.30;;
75059;SDS011;63640;59.264;18.116;2023-02-04T12:20:34;3.85;;;1.20;;
75059;SDS011;63640;59.264;18.116;2023-02-04T12:23:12;6.88;;;1.35;;
75059;SDS011;63640;59.264;18.116;2023-02-04T12:25:37;8.35;;;1.02;;
75059;SDS011;63640;59.264;18.116;2023-02-04T12:28:03;5.50;;;0.90;;
75059;SDS011;63640;59.264;18.116;2023-02-04T12:30:28;4.30;;;1.15;;
75059;SDS011;63640;59.264;18.116;2023-02-04T12:32:54;6.40;;;1.30;;
75059;SDS011;63640;59.264;18.116;2023-02-04T12:35:19;5.97;;;1.45;;
75059;SDS011;63640;59.264;18.116;2023-02-04T12:37:45;5.20;;;1.30;;
75059;SDS011;63640;59.264;18.116;2023-02-04T12:40:14;6.28;;;1.13;;
75059;SDS011;63640;59.264;18.116;2023-02-04T12:42:41;2.95;;;1.00;;
75059;SDS011;63640;59.264;18.116;2023-02-04T12:45:07;3.55;;;1.05;;
75059;SDS011;63640;59.264;18.116;2023-02-04T12:47:33;3.50;;;0.90;;
75059;SDS011;63640;59.264;18.116;2023-02-04T12:49:59;5.95;;;1.67;;
75059;SDS011;63640;59.264;18.116;2023-02-04T12:52:24;4.30;;;1.20;;
75059;SDS011;63640;59.264;18.116;2023-02-04T12:54:50;4.60;;;1.00;;
75059;SDS011;63640;59.264;18.116;2023-02-04T12:57:15;5.25;;;1.65;;
75059;SDS011;63640;59.264;18.116;2023-02-04T12:59:44;7.72;;;1.40;;
75059;SDS011;63640;59.264;18.116;2023-02-04T13:02:15;6.20;;;1.10;;
75059;SDS011;63640;59.264;18.116;2023-02-04T13:04:41;7.78;;;1.35;;
75059;SDS011;63640;59.264;18.116;2023-02-04T13:07:07;6.43;;;1.30;;
75059;SDS011;63640;59.264;18.116;2023-02-04T13:09:34;6.47;;;1.30;;
75059;SDS011;63640;59.264;18.116;2023-02-04T13:12:00;5.28;;;1.50;;
75059;SDS011;63640;59.264;18.116;2023-02-04T13:14:25;4.72;;;1.35;;
75059;SDS011;63640;59.264;18.116;2023-02-04T13:16:51;4.43;;;1.10;;
75059;SDS011;63640;59.264;18.116;2023-02-04T13:19:16;4.50;;;1.30;;
75059;SDS011;63640;59.264;18.116;2023-02-04T13:21:42;4.43;;;1.17;;
75059;SDS011;63640;59.264;18.116;2023-02-04T13:24:08;5.22;;;1.20;;
75059;SDS011;63640;59.264;18.116;2023-02-04T13:26:33;6.40;;;1.20;;
75059;SDS011;63640;59.264;18.116;2023-02-04T13:28:59;5.47;;;1.27;;
75059;SDS011;63640;59.264;18.116;2023-02-04T13:31:24;8.43;;;1.40;;
75059;SDS011;63640;59.264;18.116;2023-02-04T13:33:50;4.82;;;1.38;;
75059;SDS011;63640;59.264;18.116;2023-02-04T13:36:15;10.15;;;1.20;;
75059;SDS011;63640;59.264;18.116;2023-02-04T13:38:41;4.82;;;1.13;;
75059;SDS011;63640;59.264;18.116;2023-02-04T13:41:06;8.02;;;1.58;;
75059;SDS011;63640;59.264;18.116;2023-02-04T13:43:32;5.07;;;1.58;;
75059;SDS011;63640;59.264;18.116;2023-02-04T13:45:57;4.32;;;1.15;;
75059;SDS011;63640;59.264;18.116;2023-02-04T13:48:23;6.07;;;1.35;;
75059;SDS011;63640;59.264;18.116;2023-02-04T13:50:48;7.75;;;1.23;;
75059;SDS011;63640;59.264;18.116;2023-02-04T13:53:17;5.10;;;1.05;;
75059;SDS011;63640;59.264;18.116;2023-02-04T13:55:43;7.50;;;1.05;;
75059;SDS011;63640;59.264;18.116;2023-02-04T13:58:08;5.95;;;1.20;;
75059;SDS011;63640;59.264;18.116;2023-02-04T14:00:34;4.90;;;1.20;;
75059;SDS011;63640;59.264;18.116;2023-02-04T14:02:59;5.18;;;1.50;;
75059;SDS011;63640;59.264;18.116;2023-02-04T14:05:25;5.30;;;1.23;;
75059;SDS011;63640;59.264;18.116;2023-02-04T14:07:50;5.85;;;1.50;;
75059;SDS011;63640;59.264;18.116;2023-02-04T14:10:16;5.63;;;1.23;;
75059;SDS011;63640;59.264;18.116;2023-02-04T14:12:42;6.28;;;1.50;;
75059;SDS011;63640;59.264;18.116;2023-02-04T14:15:08;8.38;;;1.58;;
75059;SDS011;63640;59.264;18.116;2023-02-04T14:17:34;6.13;;;1.27;;
75059;SDS011;63640;59.264;18.116;2023-02-04T14:19:59;4.35;;;1.13;;
75059;SDS011;63640;59.264;18.116;2023-02-04T14:22:25;7.25;;;1.50;;
75059;SDS011;63640;59.264;18.116;2023-02-04T14:24:50;5.85;;;1.55;;
75059;SDS011;63640;59.264;18.116;2023-02-04T14:27:16;6.43;;;1.45;;
75059;SDS011;63640;59.264;18.116;2023-02-04T14:29:41;4.90;;;1.42;;
75059;SDS011;63640;59.264;18.116;2023-02-04T14:32:07;5.70;;;1.40;;
75059;SDS011;63640;59.264;18.116;2023-02-04T14:34:32;5.30;;;1.50;;
75059;SDS011;63640;59.264;18.116;2023-02-04T14:36:58;8.80;;;1.83;;
75059;SDS011;63640;59.264;18.116;2023-02-04T14:39:24;7.53;;;1.90;;
75059;SDS011;63640;59.264;18.116;2023-02-04T14:41:49;7.20;;;1.40;;
75059;SDS011;63640;59.264;18.116;2023-02-04T14:46:47;4.00;;;1.50;;
75059;SDS011;63640;59.264;18.116;2023-02-04T14:49:13;5.70;;;1.73;;
75059;SDS011;63640;59.264;18.116;2023-02-04T14:51:39;9.15;;;2.20;;
75059;SDS011;63640;59.264;18.116;2023-02-04T14:54:05;6.60;;;1.58;;
75059;SDS011;63640;59.264;18.116;2023-02-04T14:56:31;5.22;;;1.80;;
75059;SDS011;63640;59.264;18.116;2023-02-04T14:58:56;5.78;;;1.70;;
75059;SDS011;63640;59.264;18.116;2023-02-04T15:01:22;6.43;;;1.63;;
75059;SDS011;63640;59.264;18.116;2023-02-04T15:03:47;4.25;;;1.30;;
75059;SDS011;63640;59.264;18.116;2023-02-04T15:06:13;8.23;;;2.03;;
75059;SDS011;63640;59.264;18.116;2023-02-04T15:08:39;7.18;;;1.55;;
75059;SDS011;63640;59.264;18.116;2023-02-04T15:11:04;7.15;;;2.22;;
75059;SDS011;63640;59.264;18.116;2023-02-04T15:13:30;10.25;;;2.00;;
75059;SDS011;63640;59.264;18.116;2023-02-04T15:15:55;8.35;;;1.95;;